Latest Coastal Weather Observations for Green Cape

IDN60701

Issued at 7:02 pm EST Wednesday 29 June 2016 (issued every 10 minutes, with the page automatically refreshed every 10 minutes)

About coastal observations | Map of coastal stations | Coastal observations for NSW | Marine services | Other Formats
Station Details ID: 069137 Name: GREEN CAPE AWS Lat: -37.26 Lon: 150.05 Height: 19.4 m
Data from the previous 72 hours. | See also: Recent months at Green Cape
Date/Time
EST
Temp
°C
Wind Pressure Rain since
9am
mm
Weather Cloud Vis
km
Sea
Height
m
Swell
Dir  Spd
kts
Gust
kts
hPa Trend Height
m
Period
s
Dir
29/07:00pm 13.2 W 3 4 1024.5 - 0.0 - - - - - - -
29/06:30pm 13.5 SSE 5 6 1024.4 - 0.0 - - - - - - -
29/06:00pm 13.6 SSE 6 7 1024.3 - 0.0 - - - - - - -
29/05:30pm 14.0 SSE 6 7 1024.4 - 0.0 - - - - - - -
29/05:00pm 14.0 SSE 8 9 1024.3 - 0.0 - - - - - - -
29/04:30pm 14.1 SE 3 4 1024.6 - 0.0 - - - - - - -
29/04:00pm 14.9 SE 5 6 1024.7 - 0.0 - - - - - - -
29/03:30pm 15.4 SE 6 7 1024.6 - 0.0 - - - - - - -
29/03:00pm 17.3 ESE 2 4 1024.5 - 0.0 - - - - - - -
29/02:30pm 16.9 ENE 1 3 1024.6 - 0.0 - - - - - - -
29/02:00pm 16.9 E 1 3 1024.6 - 0.0 - - - - - - -
29/01:30pm 16.8 CALM 0 0 1024.8 - 0.0 - - - - - - -
29/01:00pm 16.6 W 1 3 1025.1 - 0.0 - - - - - - -
29/12:30pm 15.7 W 6 7 1025.5 - 0.0 - - - - - - -
29/12:00pm 15.3 WNW 6 8 1025.8 - 0.0 - - - - - - -
29/11:30am 14.6 WNW 7 8 1026.3 - 0.0 - - - - - - -
29/11:00am 13.8 WNW 7 8 1026.7 - 0.0 - - - - - - -
29/10:30am 12.8 W 9 10 1027.0 - 0.0 - - - - - - -
29/10:00am 11.8 W 9 11 1027.1 - 0.0 - - - - - - -
29/09:30am 10.9 WNW 10 11 1027.0 - 0.0 - - - - - - -
29/09:00am 9.9 W 8 10 1026.9 - 0.0 - - - - - - -
29/08:30am 9.7 W 6 7 1026.9 - 0.0 - - - - - - -
29/08:00am 9.2 W 5 7 1026.7 - 0.0 - - - - - - -
29/07:30am 8.9 W 7 8 1026.3 - 0.0 - - - - - - -
29/07:00am 9.0 W 8 9 1026.1 - 0.0 - - - - - - -
29/06:30am 9.1 W 6 8 1025.9 - 0.0 - - - - - - -
29/06:00am 9.3 W 8 9 1025.7 - 0.0 - - - - - - -
29/05:30am 9.4 W 8 9 1025.5 - 0.0 - - - - - - -
29/05:00am 9.4 W 10 12 1025.2 - 0.0 - - - - - - -
29/04:30am 9.3 WNW 8 11 1025.0 - 0.0 - - - - - - -
29/04:00am 8.7 NNW 2 5 1025.1 - 0.0 - - - - - - -
29/03:30am 9.0 WNW 6 7 1025.2 - 0.0 - - - - - - -
29/03:00am 9.3 W 6 8 1025.2 - 0.0 - - - - - - -
29/02:30am 9.6 WNW 7 9 1025.1 - 0.0 - - - - - - -
29/02:00am 9.3 WNW 8 11 1025.2 - 0.0 - - - - - - -
29/01:30am 10.2 WNW 9 12 1025.1 - 0.0 - - - - - - -
29/01:00am 10.9 WNW 9 12 1025.0 - 0.0 - - - - - - -
29/12:30am 10.5 WNW 8 11 1025.1 - 0.0 - - - - - - -
29/12:00am 10.4 WNW 7 11 1025.2 - 0.0 - - - - - - -
 
Date/Time
EST
Temp
°C
Wind Pressure Rain since
9am
mm
Weather Cloud Vis
km
Sea
Height
m
Swell
Dir  Spd
kts
Gust
kts
hPa Trend Height
m
Period
s
Dir
28/11:30pm 10.8 WNW 11 13 1025.3 - 0.0 - - - - - - -
28/11:00pm 10.9 WNW 7 9 1025.3 - 0.0 - - - - - - -
28/10:30pm 10.2 W 8 10 1025.2 - 0.0 - - - - - - -
28/10:00pm 10.4 W 8 10 1025.2 - 0.0 - - - - - - -
28/09:30pm 10.4 WNW 8 10 1025.1 - 0.0 - - - - - - -
28/09:00pm 10.6 WNW 7 8 1025.0 - 0.0 - - - - - - -
28/08:30pm 11.0 WNW 6 8 1024.9 - 0.0 - - - - - - -
28/08:00pm 11.3 WNW 7 9 1024.7 - 0.0 - - - - - - -
28/07:30pm 11.7 WNW 5 6 1024.5 - 0.0 - - - - - - -
28/07:00pm 12.3 W 3 4 1024.3 - 0.0 - - - - - - -
28/06:30pm 12.6 WNW 3 4 1024.0 - 0.0 - - - - - - -
28/06:00pm 12.6 WNW 4 5 1023.9 - 0.0 - - - - - - -
28/05:30pm 13.7 W 4 6 1023.5 - 0.0 - - - - - - -
28/05:00pm 14.1 SW 7 8 1023.3 - 0.0 - - - - - - -
28/04:30pm 14.7 WSW 11 13 1023.1 - 0.0 - - - - - - -
28/04:00pm 14.9 WSW 11 14 1022.9 - 0.0 - - - - - - -
28/03:30pm 15.1 WSW 10 12 1022.5 - 0.0 - - - - - - -
28/03:00pm 15.3 WSW 12 15 1022.3 - 0.0 - - - - - - -
28/02:30pm 15.2 WSW 11 14 1022.1 - 0.0 - - - - - - -
28/02:00pm 15.2 WSW 13 16 1022.1 - 0.0 - - - - - - -
28/01:30pm 15.0 WSW 12 14 1021.9 - 0.0 - - - - - - -
28/01:00pm 14.8 WSW 13 17 1021.8 - 0.0 - - - - - - -
28/12:30pm 14.4 WSW 13 16 1022.0 - 0.0 - - - - - - -
28/12:00pm 14.0 WSW 12 15 1022.4 - 0.0 - - - - - - -
28/11:30am 13.4 W 13 16 1022.7 - 0.0 - - - - - - -
28/11:00am 12.8 W 10 13 1023.0 - 0.0 - - - - - - -
28/10:30am 12.4 W 8 11 1023.2 - 0.0 - - - - - - -
28/10:00am 12.0 W 9 12 1023.0 - 0.0 - - - - - - -
28/09:30am 11.5 W 10 11 1022.8 - 0.0 - - - - - - -
28/09:00am 11.0 W 9 11 1022.5 - 0.0 - - - - - - -
28/08:30am 9.8 W 6 8 1022.2 - 0.0 - - - - - - -
28/08:00am 9.7 W 8 10 1021.8 - 0.0 - - - - - - -
28/07:30am 10.1 W 10 13 1021.4 - 0.0 - - - - - - -
28/07:00am 10.5 W 11 15 1021.0 - 0.0 - - - - - - -
28/06:30am 11.0 WSW 13 16 1020.6 - 0.0 - - - - - - -
28/06:00am 10.9 WSW 16 19 1020.2 - 0.0 - - - - - - -
28/05:30am 10.7 WSW 15 20 1019.7 - 0.0 - - - - - - -
28/05:00am 10.3 WSW 14 18 1019.5 - 0.0 - - - - - - -
28/04:30am 10.7 WSW 14 19 1019.3 - 0.0 - - - - - - -
28/04:00am 11.0 WSW 17 20 1019.0 - 0.0 - - - - - - -
28/03:30am 11.2 WSW 21 25 1018.7 - 0.0 - - - - - - -
28/03:00am 11.1 WSW 18 22 1018.8 - 0.0 - - - - - - -
28/02:30am 10.9 WSW 19 23 1018.7 - 0.0 - - - - - - -
28/02:00am 10.8 WSW 23 26 1018.6 - 0.0 - - - - - - -
28/01:30am 11.1 WSW 24 31 1018.4 - 0.0 - - - - - - -
28/01:00am 10.9 WSW 20 24 1018.4 - 0.0 - - - - - - -
28/12:30am 10.7 WSW 19 23 1018.7 - 0.0 - - - - - - -
28/12:00am 10.8 WSW 21 24 1018.4 - 0.0 - - - - - - -
 
Date/Time
EST
Temp
°C
Wind Pressure Rain since
9am
mm
Weather Cloud Vis
km
Sea
Height
m
Swell
Dir  Spd
kts
Gust
kts
hPa Trend Height
m
Period
s
Dir
27/11:30pm 11.2 WSW 20 24 1018.3 - 0.0 - - - - - - -
27/11:00pm 11.1 WSW 18 22 1018.1 - 0.0 - - - - - - -
27/10:30pm 11.2 WSW 18 22 1018.1 - 0.0 - - - - - - -
27/10:00pm 11.3 WSW 20 24 1017.9 - 0.0 - - - - - - -
27/09:30pm 11.9 WSW 23 26 1017.6 - 0.0 - - - - - - -
27/09:00pm 11.8 WSW 22 27 1017.5 - 0.0 - - - - - - -
27/08:30pm 11.5 WSW 13 18 1017.5 - 0.0 - - - - - - -
27/08:00pm 11.5 SW 14 17 1017.4 - 0.0 - - - - - - -
27/07:30pm 11.6 SW 15 18 1017.4 - 0.0 - - - - - - -
27/07:00pm 11.5 SW 14 17 1017.1 - 0.0 - - - - - - -
27/06:30pm 11.6 SW 15 18 1016.9 - 0.0 - - - - - - -
27/06:00pm 11.7 SW 12 13 1016.7 - 0.0 - - - - - - -
27/05:30pm 11.6 SW 12 14 1016.4 - 0.0 - - - - - - -
27/05:00pm 11.6 SW 11 13 1015.9 - 0.0 - - - - - - -
27/04:30pm 11.7 SW 11 13 1015.5 - 0.0 - - - - - - -
27/04:00pm 12.0 SW 14 17 1015.2 - 0.0 - - - - - - -
27/03:30pm 11.9 SW 16 19 1014.8 - 0.0 - - - - - - -
27/03:00pm 12.0 SW 14 19 1014.7 - 0.0 - - - - - - -
27/02:30pm 11.7 WSW 14 16 1014.5 - 0.0 - - - - - - -
27/02:00pm 11.7 SW 15 18 1014.4 - 0.0 - - - - - - -
27/01:30pm 11.6 WSW 12 15 1014.5 - 0.0 - - - - - - -
27/01:00pm 11.7 SW 11 15 1014.7 - 0.0 - - - - - - -
27/12:30pm 11.2 WSW 12 15 1015.1 - 0.0 - - - - - - -
27/12:00pm 11.2 SW 16 19 1015.1 - 0.0 - - - - - - -
27/11:30am 11.1 WSW 19 22 1015.4 - 0.0 - - - - - - -
27/11:00am 11.2 WSW 17 20 1015.7 - 0.0 - - - - - - -
27/10:30am 11.0 WSW 16 19 1015.8 - 0.0 - - - - - - -
27/10:00am 10.6 WSW 16 19 1015.7 - 0.0 - - - - - - -
27/09:30am 10.2 WSW 16 18 1015.7 - 0.0 - - - - - - -
27/09:00am 9.8 WSW 17 20 1015.6 - 0.0 - - - - - - -
27/08:30am 9.8 WSW 17 20 1015.6 - 0.0 - - - - - - -
27/08:00am 9.7 WSW 17 20 1015.4 - 0.0 - - - - - - -
27/07:30am 9.7 WSW 15 17 1015.3 - 0.0 - - - - - - -
27/07:00am 9.8 WSW 15 18 1015.0 - 0.0 - - - - - - -
27/06:30am 9.6 WSW 13 16 1014.8 - 0.0 - - - - - - -
27/06:00am 9.9 WSW 14 18 1014.7 - 0.0 - - - - - - -
27/05:30am 10.2 WSW 14 16 1014.5 - 0.0 - - - - - - -
27/05:00am 9.9 WSW 13 16 1014.2 - 0.0 - - - - - - -
27/04:30am 9.7 WSW 14 16 1014.0 - 0.0 - - - - - - -
27/04:00am 9.8 W 12 14 1014.2 - 0.0 - - - - - - -
27/03:30am 9.8 W 12 14 1014.4 - 0.0 - - - - - - -
27/03:00am 9.7 W 10 11 1014.5 - 0.0 - - - - - - -
27/02:30am 9.8 W 12 13 1014.6 - 0.0 - - - - - - -
27/02:00am 9.8 W 11 12 1014.5 - 0.0 - - - - - - -
27/01:30am 10.0 W 10 12 1014.4 - 0.0 - - - - - - -
27/01:00am 9.6 W 9 11 1014.4 - 0.0 - - - - - - -
27/12:30am 9.7 W 12 13 1014.5 - 0.0 - - - - - - -
27/12:00am 10.1 W 9 10 1014.8 - 0.0 - - - - - - -
 
Date/Time
EST
Temp
°C
Wind Pressure Rain since
9am
mm
Weather Cloud Vis
km
Sea
Height
m
Swell
Dir  Spd
kts
Gust
kts
hPa Trend Height
m
Period
s
Dir
26/11:30pm 10.2 W 8 9 1015.1 - 0.0 - - - - - - -
26/11:00pm 10.3 W 9 10 1015.3 - 0.0 - - - - - - -
26/10:30pm 10.7 W 7 8 1015.4 - 0.0 - - - - - - -
26/10:00pm 11.0 W 7 8 1015.6 - 0.0 - - - - - - -
26/09:30pm 11.1 W 6 8 1015.9 - 0.0 - - - - - - -
26/09:00pm 11.0 WSW 6 7 1016.0 - 0.0 - - - - - - -
26/08:30pm 11.1 W 5 7 1016.4 - 0.0 - - - - - - -
26/08:00pm 11.2 W 7 8 1016.5 - 0.0 - - - - - - -
26/07:30pm 11.5 WSW 6 7 1016.5 - 0.0 - - - - - - -

Other Formats:

Comma delimited format used in spreadsheet applications
http://www.bom.gov.au/fwo/IDN60701/IDN60701.94934.axf

JavaScript Object Notation format (JSON) in row-major order
http://www.bom.gov.au/fwo/IDN60701/IDN60701.94934.json